دمياط, مصر

06:50 AM EET on أعس×س 20, 2014 (GMT +0200)
Port Said | Change Station
CLOSE
Current Station
Airport
Location: Port Said Airport,
Elevation: 7 ft
Nearby Weather Stations

Elev 7 ft 31.28 °N, 32.24 °E | Updated 50 minutes ago

Partly Cloudy
غائم جزئياً
77 °F
Feels Like 77 °F
N
7
ريح متغير ريح from WSW

هذا اليوم
High -- | Low -- °F
--% Chance of Precip.
Yesterday
High -- | Low -- °F
Precip. -- في
5:21 AM 6:30 PM
الهلال الأخير, 24% visible
الضغط 29.92 في
وضوح الرؤية 6.2 أميال
سحابات Few 2500 ft
نقطة الندى 70 °F
الرطوبة 78%
Rainfall 0.00 في
عمق الثلج Not available.
الأشعة فوق البنفسجية 0 out of 12
Pollen Not available.
جودة الهواء Not available.
Flu Activity Not available.
METAR HEPS 200400Z 24006KT 9999 FEW025 25/21 Q1013 NOSIG

More Conditions Fewer Conditions

الضغط 29.92 في
وضوح الرؤية 6.2 أميال
سحابات Few 2500 ft
نقطة الندى 70 °F
الرطوبة 78%
Rainfall 0.00 في
عمق الثلج Not available.
الأشعة فوق البنفسجية 0 out of 12
Pollen Not available.
جودة الهواء Not available.
Flu Activity Not available.
METAR HEPS 200400Z 24006KT 9999 FEW025 25/21 Q1013 NOSIG

More Conditions Fewer Conditions

10-Day Weather Forecast

Almanac

علم الفلك

Aug. 20, 2014 Rise Set
Actual Time 5:21 AM EET 6:30 PM EET
Civil Twilight 4:55 AM EET 6:56 PM EET
Nautical Twilight 4:25 AM EET 7:26 PM EET
Astronomical Twilight 3:54 AM EET 7:57 PM EET
قمر 12:51 AM EET 2:53 PM EET
Length Of Visible Light 14h 00m
طول الیوم
13h 09m
Tomorrow will be 1m 43s shorter.
الهلال الأخير, 24% of the Moon is Illuminated
هذا اليوم
الهلال الأخير
Aug 25
New
Sep 2
الربع الاول
Sep 8
بدر
Sep 15
الربع الآخر

Yesterday's Extremes

Country Highs Country Lows

Community

WunderPhotos

Upload Photos

1,745,585 photos uploaded!

Nearby

جودة الهواء

Not available.

عمق الثلج

Not available.

Earthquake Activity

City Distance Mag. Time & Date
No recent earthquake activity has been reported nearby.
Minimum magnitude displayed is 2.5.

Coastal Water Temperatures

مكان درجات الحرارة
No Stations Reporting

Nearby Weather Stations